sensor_id;sensor_type;location;lat;lon;timestamp;P1;durP1;ratioP1;P2;durP2;ratioP2
69956;SDS011;57283;54.816;9.482;2023-04-06T00:02:02;5.68;;;2.42;;
69956;SDS011;57283;54.816;9.482;2023-04-06T00:04:31;6.80;;;2.15;;
69956;SDS011;57283;54.816;9.482;2023-04-06T00:06:58;5.47;;;2.35;;
69956;SDS011;57283;54.816;9.482;2023-04-06T00:09:28;5.50;;;2.10;;
69956;SDS011;57283;54.816;9.482;2023-04-06T00:11:56;5.32;;;2.30;;
69956;SDS011;57283;54.816;9.482;2023-04-06T00:14:24;6.00;;;2.72;;
69956;SDS011;57283;54.816;9.482;2023-04-06T00:16:52;6.38;;;2.40;;
69956;SDS011;57283;54.816;9.482;2023-04-06T00:19:20;5.68;;;2.33;;
69956;SDS011;57283;54.816;9.482;2023-04-06T00:21:48;6.60;;;2.47;;
69956;SDS011;57283;54.816;9.482;2023-04-06T00:24:16;5.95;;;2.50;;
69956;SDS011;57283;54.816;9.482;2023-04-06T00:26:46;6.57;;;2.40;;
69956;SDS011;57283;54.816;9.482;2023-04-06T00:29:14;5.78;;;2.45;;
69956;SDS011;57283;54.816;9.482;2023-04-06T00:31:42;6.35;;;2.47;;
69956;SDS011;57283;54.816;9.482;2023-04-06T00:34:10;5.50;;;2.63;;
69956;SDS011;57283;54.816;9.482;2023-04-06T00:36:38;6.18;;;2.40;;
69956;SDS011;57283;54.816;9.482;2023-04-06T00:39:06;4.68;;;2.28;;
69956;SDS011;57283;54.816;9.482;2023-04-06T00:41:35;6.10;;;2.30;;
69956;SDS011;57283;54.816;9.482;2023-04-06T00:44:04;5.82;;;2.30;;
69956;SDS011;57283;54.816;9.482;2023-04-06T00:46:32;6.03;;;2.50;;
69956;SDS011;57283;54.816;9.482;2023-04-06T00:49:00;6.25;;;2.53;;
69956;SDS011;57283;54.816;9.482;2023-04-06T00:51:28;6.15;;;2.70;;
69956;SDS011;57283;54.816;9.482;2023-04-06T00:53:57;5.47;;;2.47;;
69956;SDS011;57283;54.816;9.482;2023-04-06T00:56:24;5.32;;;2.20;;
69956;SDS011;57283;54.816;9.482;2023-04-06T00:58:53;6.50;;;2.20;;
69956;SDS011;57283;54.816;9.482;2023-04-06T01:01:22;6.35;;;2.60;;
69956;SDS011;57283;54.816;9.482;2023-04-06T01:03:51;5.45;;;2.00;;
69956;SDS011;57283;54.816;9.482;2023-04-06T01:06:19;4.82;;;1.83;;
69956;SDS011;57283;54.816;9.482;2023-04-06T01:08:47;6.10;;;2.28;;
69956;SDS011;57283;54.816;9.482;2023-04-06T01:11:15;7.53;;;2.63;;
69956;SDS011;57283;54.816;9.482;2023-04-06T01:13:42;6.78;;;2.35;;
69956;SDS011;57283;54.816;9.482;2023-04-06T01:16:10;6.20;;;2.30;;
69956;SDS011;57283;54.816;9.482;2023-04-06T01:18:40;5.97;;;2.33;;
69956;SDS011;57283;54.816;9.482;2023-04-06T01:21:08;6.53;;;2.40;;
69956;SDS011;57283;54.816;9.482;2023-04-06T01:23:43;6.40;;;2.80;;
69956;SDS011;57283;54.816;9.482;2023-04-06T01:26:12;7.03;;;2.88;;
69956;SDS011;57283;54.816;9.482;2023-04-06T01:28:40;6.85;;;2.78;;
69956;SDS011;57283;54.816;9.482;2023-04-06T01:31:09;6.88;;;2.88;;
69956;SDS011;57283;54.816;9.482;2023-04-06T01:33:37;9.88;;;3.13;;
69956;SDS011;57283;54.816;9.482;2023-04-06T01:36:05;5.00;;;2.40;;
69956;SDS011;57283;54.816;9.482;2023-04-06T01:38:34;8.23;;;2.92;;
69956;SDS011;57283;54.816;9.482;2023-04-06T01:41:03;7.40;;;3.17;;
69956;SDS011;57283;54.816;9.482;2023-04-06T01:43:31;7.50;;;2.67;;
69956;SDS011;57283;54.816;9.482;2023-04-06T01:45:59;5.50;;;2.22;;
69956;SDS011;57283;54.816;9.482;2023-04-06T01:48:28;7.47;;;3.07;;
69956;SDS011;57283;54.816;9.482;2023-04-06T01:50:56;6.32;;;2.50;;
69956;SDS011;57283;54.816;9.482;2023-04-06T01:53:24;5.88;;;2.58;;
69956;SDS011;57283;54.816;9.482;2023-04-06T01:55:52;5.65;;;2.38;;
69956;SDS011;57283;54.816;9.482;2023-04-06T01:58:21;5.95;;;2.47;;
69956;SDS011;57283;54.816;9.482;2023-04-06T02:00:49;4.80;;;2.20;;
69956;SDS011;57283;54.816;9.482;2023-04-06T02:03:17;6.57;;;2.63;;
69956;SDS011;57283;54.816;9.482;2023-04-06T02:05:45;6.53;;;2.78;;
69956;SDS011;57283;54.816;9.482;2023-04-06T02:08:13;7.65;;;2.80;;
69956;SDS011;57283;54.816;9.482;2023-04-06T02:10:41;5.68;;;2.08;;
69956;SDS011;57283;54.816;9.482;2023-04-06T02:13:09;5.10;;;2.30;;
69956;SDS011;57283;54.816;9.482;2023-04-06T02:15:38;4.10;;;1.98;;
69956;SDS011;57283;54.816;9.482;2023-04-06T02:18:07;6.80;;;2.53;;
69956;SDS011;57283;54.816;9.482;2023-04-06T02:20:36;6.30;;;2.60;;
69956;SDS011;57283;54.816;9.482;2023-04-06T02:23:04;6.35;;;2.28;;
69956;SDS011;57283;54.816;9.482;2023-04-06T02:25:32;5.00;;;2.30;;
69956;SDS011;57283;54.816;9.482;2023-04-06T02:28:01;5.72;;;2.28;;
69956;SDS011;57283;54.816;9.482;2023-04-06T02:30:29;6.78;;;2.60;;
69956;SDS011;57283;54.816;9.482;2023-04-06T02:33:00;5.63;;;2.40;;
69956;SDS011;57283;54.816;9.482;2023-04-06T02:35:30;7.30;;;2.55;;
69956;SDS011;57283;54.816;9.482;2023-04-06T02:37:58;4.93;;;1.87;;
69956;SDS011;57283;54.816;9.482;2023-04-06T02:40:26;6.15;;;2.30;;
69956;SDS011;57283;54.816;9.482;2023-04-06T02:42:54;6.53;;;2.40;;
69956;SDS011;57283;54.816;9.482;2023-04-06T02:45:22;4.90;;;2.15;;
69956;SDS011;57283;54.816;9.482;2023-04-06T02:47:50;7.80;;;2.70;;
69956;SDS011;57283;54.816;9.482;2023-04-06T02:50:19;6.57;;;2.63;;
69956;SDS011;57283;54.816;9.482;2023-04-06T02:52:47;5.93;;;2.58;;
69956;SDS011;57283;54.816;9.482;2023-04-06T02:55:16;6.78;;;2.45;;
69956;SDS011;57283;54.816;9.482;2023-04-06T02:57:47;7.40;;;2.78;;
69956;SDS011;57283;54.816;9.482;2023-04-06T03:00:16;8.45;;;3.00;;
69956;SDS011;57283;54.816;9.482;2023-04-06T03:02:44;7.27;;;2.97;;
69956;SDS011;57283;54.816;9.482;2023-04-06T03:05:12;6.05;;;2.28;;
69956;SDS011;57283;54.816;9.482;2023-04-06T03:07:42;6.30;;;2.53;;
69956;SDS011;57283;54.816;9.482;2023-04-06T03:10:10;8.32;;;2.72;;
69956;SDS011;57283;54.816;9.482;2023-04-06T03:12:38;7.57;;;2.58;;
69956;SDS011;57283;54.816;9.482;2023-04-06T03:15:08;7.70;;;3.17;;
69956;SDS011;57283;54.816;9.482;2023-04-06T03:17:36;6.15;;;2.50;;
69956;SDS011;57283;54.816;9.482;2023-04-06T03:20:05;6.28;;;2.22;;
69956;SDS011;57283;54.816;9.482;2023-04-06T03:22:33;6.07;;;2.42;;
69956;SDS011;57283;54.816;9.482;2023-04-06T03:25:03;5.95;;;2.42;;
69956;SDS011;57283;54.816;9.482;2023-04-06T03:27:31;5.80;;;2.40;;
69956;SDS011;57283;54.816;9.482;2023-04-06T03:29:59;7.63;;;2.97;;
69956;SDS011;57283;54.816;9.482;2023-04-06T03:32:27;6.00;;;2.20;;
69956;SDS011;57283;54.816;9.482;2023-04-06T03:34:55;6.47;;;2.65;;
69956;SDS011;57283;54.816;9.482;2023-04-06T03:37:22;5.10;;;2.15;;
69956;SDS011;57283;54.816;9.482;2023-04-06T03:39:51;5.83;;;2.53;;
69956;SDS011;57283;54.816;9.482;2023-04-06T03:42:21;5.63;;;2.10;;
69956;SDS011;57283;54.816;9.482;2023-04-06T03:44:49;6.35;;;2.38;;
69956;SDS011;57283;54.816;9.482;2023-04-06T03:47:16;6.82;;;2.42;;
69956;SDS011;57283;54.816;9.482;2023-04-06T03:49:44;7.53;;;2.42;;
69956;SDS011;57283;54.816;9.482;2023-04-06T03:52:12;6.53;;;2.60;;
69956;SDS011;57283;54.816;9.482;2023-04-06T03:54:40;7.15;;;2.38;;
69956;SDS011;57283;54.816;9.482;2023-04-06T03:57:08;6.03;;;2.67;;
69956;SDS011;57283;54.816;9.482;2023-04-06T03:59:37;6.43;;;2.45;;
69956;SDS011;57283;54.816;9.482;2023-04-06T04:02:05;5.50;;;2.00;;
69956;SDS011;57283;54.816;9.482;2023-04-06T04:04:33;7.20;;;2.63;;
69956;SDS011;57283;54.816;9.482;2023-04-06T04:07:01;5.07;;;2.00;;
69956;SDS011;57283;54.816;9.482;2023-04-06T04:09:29;6.43;;;2.03;;
69956;SDS011;57283;54.816;9.482;2023-04-06T04:11:57;8.70;;;2.58;;
69956;SDS011;57283;54.816;9.482;2023-04-06T04:14:26;5.40;;;2.25;;
69956;SDS011;57283;54.816;9.482;2023-04-06T04:16:55;5.63;;;2.43;;
69956;SDS011;57283;54.816;9.482;2023-04-06T04:19:23;8.15;;;2.13;;
69956;SDS011;57283;54.816;9.482;2023-04-06T04:21:51;7.68;;;2.47;;
69956;SDS011;57283;54.816;9.482;2023-04-06T04:24:19;8.50;;;2.58;;
69956;SDS011;57283;54.816;9.482;2023-04-06T04:26:47;9.23;;;3.20;;
69956;SDS011;57283;54.816;9.482;2023-04-06T04:29:15;5.60;;;2.23;;
69956;SDS011;57283;54.816;9.482;2023-04-06T04:31:43;8.30;;;2.75;;
69956;SDS011;57283;54.816;9.482;2023-04-06T04:34:12;8.98;;;2.70;;
69956;SDS011;57283;54.816;9.482;2023-04-06T04:36:40;6.30;;;2.63;;
69956;SDS011;57283;54.816;9.482;2023-04-06T04:39:08;8.20;;;3.42;;
69956;SDS011;57283;54.816;9.482;2023-04-06T04:41:36;6.17;;;2.43;;
69956;SDS011;57283;54.816;9.482;2023-04-06T04:44:04;7.85;;;2.83;;
69956;SDS011;57283;54.816;9.482;2023-04-06T04:46:32;7.05;;;3.05;;
69956;SDS011;57283;54.816;9.482;2023-04-06T04:49:00;6.32;;;2.53;;
69956;SDS011;57283;54.816;9.482;2023-04-06T04:51:29;7.50;;;2.83;;
69956;SDS011;57283;54.816;9.482;2023-04-06T04:53:58;7.23;;;2.80;;
69956;SDS011;57283;54.816;9.482;2023-04-06T04:56:26;7.30;;;2.80;;
69956;SDS011;57283;54.816;9.482;2023-04-06T04:58:55;6.97;;;3.17;;
69956;SDS011;57283;54.816;9.482;2023-04-06T05:01:24;7.47;;;3.00;;
69956;SDS011;57283;54.816;9.482;2023-04-06T05:03:52;9.27;;;3.10;;
69956;SDS011;57283;54.816;9.482;2023-04-06T05:06:20;8.13;;;3.00;;
69956;SDS011;57283;54.816;9.482;2023-04-06T05:08:50;9.73;;;3.08;;
69956;SDS011;57283;54.816;9.482;2023-04-06T05:11:18;9.13;;;2.78;;
69956;SDS011;57283;54.816;9.482;2023-04-06T05:13:47;7.20;;;3.35;;
69956;SDS011;57283;54.816;9.482;2023-04-06T05:16:15;8.18;;;3.55;;
69956;SDS011;57283;54.816;9.482;2023-04-06T05:18:44;7.57;;;2.83;;
69956;SDS011;57283;54.816;9.482;2023-04-06T05:21:12;7.25;;;2.72;;
69956;SDS011;57283;54.816;9.482;2023-04-06T05:23:40;9.15;;;3.13;;
69956;SDS011;57283;54.816;9.482;2023-04-06T05:26:09;7.28;;;2.78;;
69956;SDS011;57283;54.816;9.482;2023-04-06T05:28:37;7.57;;;3.20;;
69956;SDS011;57283;54.816;9.482;2023-04-06T05:31:05;8.17;;;3.50;;
69956;SDS011;57283;54.816;9.482;2023-04-06T05:33:33;7.63;;;3.03;;
69956;SDS011;57283;54.816;9.482;2023-04-06T05:36:01;8.60;;;3.75;;
69956;SDS011;57283;54.816;9.482;2023-04-06T05:38:31;7.63;;;3.40;;
69956;SDS011;57283;54.816;9.482;2023-04-06T05:41:00;7.72;;;3.13;;
69956;SDS011;57283;54.816;9.482;2023-04-06T05:43:29;7.93;;;3.37;;
69956;SDS011;57283;54.816;9.482;2023-04-06T05:45:57;10.23;;;3.55;;
69956;SDS011;57283;54.816;9.482;2023-04-06T05:48:25;8.10;;;3.70;;
69956;SDS011;57283;54.816;9.482;2023-04-06T05:50:54;8.43;;;3.67;;
69956;SDS011;57283;54.816;9.482;2023-04-06T05:53:22;7.53;;;3.50;;
69956;SDS011;57283;54.816;9.482;2023-04-06T05:55:52;8.13;;;3.50;;
69956;SDS011;57283;54.816;9.482;2023-04-06T05:58:20;8.95;;;3.17;;
69956;SDS011;57283;54.816;9.482;2023-04-06T06:00:49;8.60;;;3.80;;
69956;SDS011;57283;54.816;9.482;2023-04-06T06:03:19;8.05;;;3.90;;
69956;SDS011;57283;54.816;9.482;2023-04-06T06:05:48;8.95;;;3.85;;
69956;SDS011;57283;54.816;9.482;2023-04-06T06:08:16;8.90;;;4.30;;
69956;SDS011;57283;54.816;9.482;2023-04-06T06:10:44;7.45;;;3.00;;
69956;SDS011;57283;54.816;9.482;2023-04-06T06:13:12;7.90;;;3.70;;
69956;SDS011;57283;54.816;9.482;2023-04-06T06:15:40;8.55;;;4.10;;
69956;SDS011;57283;54.816;9.482;2023-04-06T06:18:10;8.40;;;3.75;;
69956;SDS011;57283;54.816;9.482;2023-04-06T06:20:38;7.87;;;3.77;;
69956;SDS011;57283;54.816;9.482;2023-04-06T06:23:05;7.90;;;3.60;;
69956;SDS011;57283;54.816;9.482;2023-04-06T06:25:33;7.78;;;3.95;;
69956;SDS011;57283;54.816;9.482;2023-04-06T06:28:01;8.68;;;4.05;;
69956;SDS011;57283;54.816;9.482;2023-04-06T06:30:29;9.05;;;4.25;;
69956;SDS011;57283;54.816;9.482;2023-04-06T06:32:57;7.70;;;4.37;;
69956;SDS011;57283;54.816;9.482;2023-04-06T06:35:27;8.45;;;4.78;;
69956;SDS011;57283;54.816;9.482;2023-04-06T06:37:55;8.30;;;4.88;;
69956;SDS011;57283;54.816;9.482;2023-04-06T06:40:23;8.93;;;4.93;;
69956;SDS011;57283;54.816;9.482;2023-04-06T06:42:52;9.38;;;5.10;;
69956;SDS011;57283;54.816;9.482;2023-04-06T06:45:20;9.10;;;5.73;;
69956;SDS011;57283;54.816;9.482;2023-04-06T06:47:48;9.32;;;5.55;;
69956;SDS011;57283;54.816;9.482;2023-04-06T06:50:20;10.55;;;5.93;;
69956;SDS011;57283;54.816;9.482;2023-04-06T06:52:49;9.32;;;5.80;;
69956;SDS011;57283;54.816;9.482;2023-04-06T06:55:17;9.18;;;6.25;;
69956;SDS011;57283;54.816;9.482;2023-04-06T06:57:46;8.97;;;5.73;;
69956;SDS011;57283;54.816;9.482;2023-04-06T07:00:14;10.05;;;5.93;;
69956;SDS011;57283;54.816;9.482;2023-04-06T07:02:42;8.88;;;6.28;;
69956;SDS011;57283;54.816;9.482;2023-04-06T07:05:11;9.75;;;5.82;;
69956;SDS011;57283;54.816;9.482;2023-04-06T07:07:55;9.50;;;5.70;;
69956;SDS011;57283;54.816;9.482;2023-04-06T07:10:23;8.87;;;5.73;;
69956;SDS011;57283;54.816;9.482;2023-04-06T07:12:52;9.68;;;5.80;;
69956;SDS011;57283;54.816;9.482;2023-04-06T07:15:20;9.27;;;5.10;;
69956;SDS011;57283;54.816;9.482;2023-04-06T07:17:48;8.65;;;5.03;;
69956;SDS011;57283;54.816;9.482;2023-04-06T07:20:16;10.48;;;5.72;;
69956;SDS011;57283;54.816;9.482;2023-04-06T07:22:44;8.37;;;5.33;;
69956;SDS011;57283;54.816;9.482;2023-04-06T07:25:13;9.68;;;5.28;;
69956;SDS011;57283;54.816;9.482;2023-04-06T07:27:41;9.43;;;5.00;;
69956;SDS011;57283;54.816;9.482;2023-04-06T07:30:09;9.75;;;5.43;;
69956;SDS011;57283;54.816;9.482;2023-04-06T07:32:38;8.43;;;4.95;;
69956;SDS011;57283;54.816;9.482;2023-04-06T07:35:06;9.10;;;5.10;;
69956;SDS011;57283;54.816;9.482;2023-04-06T07:37:34;8.48;;;4.65;;
69956;SDS011;57283;54.816;9.482;2023-04-06T07:40:02;10.00;;;5.22;;
69956;SDS011;57283;54.816;9.482;2023-04-06T07:42:32;9.50;;;5.28;;
69956;SDS011;57283;54.816;9.482;2023-04-06T07:45:00;9.07;;;5.40;;
69956;SDS011;57283;54.816;9.482;2023-04-06T07:47:28;9.00;;;5.07;;
69956;SDS011;57283;54.816;9.482;2023-04-06T07:49:56;9.80;;;5.20;;
69956;SDS011;57283;54.816;9.482;2023-04-06T07:52:24;8.35;;;5.53;;
69956;SDS011;57283;54.816;9.482;2023-04-06T07:54:52;8.95;;;5.03;;
69956;SDS011;57283;54.816;9.482;2023-04-06T07:57:20;9.27;;;5.18;;
69956;SDS011;57283;54.816;9.482;2023-04-06T07:59:49;8.87;;;5.20;;
69956;SDS011;57283;54.816;9.482;2023-04-06T08:02:17;8.40;;;4.90;;
69956;SDS011;57283;54.816;9.482;2023-04-06T08:04:45;7.97;;;4.57;;
69956;SDS011;57283;54.816;9.482;2023-04-06T08:07:13;8.38;;;4.32;;
69956;SDS011;57283;54.816;9.482;2023-04-06T08:09:41;7.20;;;4.20;;
69956;SDS011;57283;54.816;9.482;2023-04-06T08:12:09;9.07;;;4.53;;
69956;SDS011;57283;54.816;9.482;2023-04-06T08:14:37;8.00;;;4.60;;
69956;SDS011;57283;54.816;9.482;2023-04-06T08:17:06;7.97;;;4.95;;
69956;SDS011;57283;54.816;9.482;2023-04-06T08:19:34;7.47;;;4.00;;
69956;SDS011;57283;54.816;9.482;2023-04-06T08:22:02;10.98;;;6.03;;
69956;SDS011;57283;54.816;9.482;2023-04-06T08:24:30;8.93;;;4.60;;
69956;SDS011;57283;54.816;9.482;2023-04-06T08:26:58;9.57;;;4.80;;
69956;SDS011;57283;54.816;9.482;2023-04-06T08:29:26;7.70;;;5.07;;
69956;SDS011;57283;54.816;9.482;2023-04-06T08:31:54;8.02;;;4.70;;
69956;SDS011;57283;54.816;9.482;2023-04-06T08:34:24;7.88;;;5.60;;
69956;SDS011;57283;54.816;9.482;2023-04-06T08:36:51;9.37;;;5.33;;
69956;SDS011;57283;54.816;9.482;2023-04-06T08:39:19;9.70;;;5.60;;
69956;SDS011;57283;54.816;9.482;2023-04-06T08:41:51;7.72;;;5.22;;
69956;SDS011;57283;54.816;9.482;2023-04-06T08:44:23;9.05;;;5.57;;
69956;SDS011;57283;54.816;9.482;2023-04-06T08:46:51;9.02;;;5.80;;
69956;SDS011;57283;54.816;9.482;2023-04-06T08:49:20;8.03;;;5.03;;
69956;SDS011;57283;54.816;9.482;2023-04-06T08:51:50;7.20;;;5.18;;
69956;SDS011;57283;54.816;9.482;2023-04-06T08:54:19;8.25;;;5.50;;
69956;SDS011;57283;54.816;9.482;2023-04-06T08:56:47;7.57;;;5.57;;
69956;SDS011;57283;54.816;9.482;2023-04-06T08:59:15;8.20;;;5.35;;
69956;SDS011;57283;54.816;9.482;2023-04-06T09:01:44;9.90;;;6.13;;
69956;SDS011;57283;54.816;9.482;2023-04-06T09:04:13;8.48;;;5.68;;
69956;SDS011;57283;54.816;9.482;2023-04-06T09:06:43;6.78;;;5.68;;
69956;SDS011;57283;54.816;9.482;2023-04-06T09:09:12;7.28;;;5.40;;
69956;SDS011;57283;54.816;9.482;2023-04-06T09:11:44;7.70;;;5.80;;
69956;SDS011;57283;54.816;9.482;2023-04-06T09:14:13;6.53;;;5.43;;
69956;SDS011;57283;54.816;9.482;2023-04-06T09:16:42;7.03;;;5.72;;
69956;SDS011;57283;54.816;9.482;2023-04-06T09:19:11;7.60;;;5.78;;
69956;SDS011;57283;54.816;9.482;2023-04-06T09:21:40;6.65;;;5.00;;
69956;SDS011;57283;54.816;9.482;2023-04-06T09:24:08;7.57;;;5.63;;
69956;SDS011;57283;54.816;9.482;2023-04-06T09:26:47;8.17;;;5.00;;
69956;SDS011;57283;54.816;9.482;2023-04-06T09:29:24;6.35;;;5.18;;
69956;SDS011;57283;54.816;9.482;2023-04-06T09:32:01;7.03;;;5.60;;
69956;SDS011;57283;54.816;9.482;2023-04-06T09:34:30;7.45;;;5.90;;
69956;SDS011;57283;54.816;9.482;2023-04-06T09:36:58;8.38;;;6.18;;
69956;SDS011;57283;54.816;9.482;2023-04-06T09:39:26;7.00;;;5.10;;
69956;SDS011;57283;54.816;9.482;2023-04-06T09:41:55;8.20;;;5.75;;
69956;SDS011;57283;54.816;9.482;2023-04-06T09:44:23;7.25;;;5.93;;
69956;SDS011;57283;54.816;9.482;2023-04-06T09:46:52;8.07;;;5.97;;
69956;SDS011;57283;54.816;9.482;2023-04-06T09:49:27;8.10;;;6.63;;
69956;SDS011;57283;54.816;9.482;2023-04-06T09:51:58;8.13;;;6.17;;
69956;SDS011;57283;54.816;9.482;2023-04-06T09:54:28;7.70;;;6.18;;
69956;SDS011;57283;54.816;9.482;2023-04-06T09:57:00;8.30;;;6.30;;
69956;SDS011;57283;54.816;9.482;2023-04-06T09:59:40;8.80;;;6.80;;
69956;SDS011;57283;54.816;9.482;2023-04-06T10:02:20;8.65;;;6.72;;
69956;SDS011;57283;54.816;9.482;2023-04-06T10:04:55;7.87;;;6.73;;
69956;SDS011;57283;54.816;9.482;2023-04-06T10:07:29;10.18;;;6.95;;
69956;SDS011;57283;54.816;9.482;2023-04-06T10:09:58;10.63;;;7.90;;
69956;SDS011;57283;54.816;9.482;2023-04-06T10:12:31;7.90;;;7.10;;
69956;SDS011;57283;54.816;9.482;2023-04-06T10:14:59;9.90;;;6.47;;
69956;SDS011;57283;54.816;9.482;2023-04-06T10:17:27;8.67;;;6.60;;
69956;SDS011;57283;54.816;9.482;2023-04-06T10:19:58;8.55;;;7.20;;
69956;SDS011;57283;54.816;9.482;2023-04-06T10:22:32;10.25;;;7.40;;
69956;SDS011;57283;54.816;9.482;2023-04-06T10:25:04;9.07;;;6.40;;
69956;SDS011;57283;54.816;9.482;2023-04-06T10:27:33;9.88;;;7.68;;
69956;SDS011;57283;54.816;9.482;2023-04-06T10:30:02;9.27;;;6.83;;
69956;SDS011;57283;54.816;9.482;2023-04-06T10:32:32;10.60;;;7.47;;
69956;SDS011;57283;54.816;9.482;2023-04-06T10:35:04;9.57;;;7.45;;
69956;SDS011;57283;54.816;9.482;2023-04-06T10:37:52;11.18;;;7.13;;
69956;SDS011;57283;54.816;9.482;2023-04-06T10:40:28;9.45;;;6.53;;
69956;SDS011;57283;54.816;9.482;2023-04-06T10:43:07;9.70;;;6.60;;
69956;SDS011;57283;54.816;9.482;2023-04-06T10:45:36;10.60;;;7.10;;
69956;SDS011;57283;54.816;9.482;2023-04-06T10:48:14;10.40;;;6.70;;
69956;SDS011;57283;54.816;9.482;2023-04-06T10:50:43;10.25;;;7.03;;
69956;SDS011;57283;54.816;9.482;2023-04-06T10:53:19;9.70;;;7.30;;
69956;SDS011;57283;54.816;9.482;2023-04-06T10:55:49;10.67;;;7.20;;
69956;SDS011;57283;54.816;9.482;2023-04-06T10:58:19;12.02;;;9.38;;
69956;SDS011;57283;54.816;9.482;2023-04-06T11:00:48;10.73;;;7.82;;
69956;SDS011;57283;54.816;9.482;2023-04-06T11:03:17;11.75;;;8.07;;
69956;SDS011;57283;54.816;9.482;2023-04-06T11:05:45;10.88;;;8.60;;
69956;SDS011;57283;54.816;9.482;2023-04-06T11:08:24;11.00;;;6.57;;
69956;SDS011;57283;54.816;9.482;2023-04-06T11:11:03;11.43;;;7.78;;
69956;SDS011;57283;54.816;9.482;2023-04-06T11:13:40;10.75;;;7.40;;
69956;SDS011;57283;54.816;9.482;2023-04-06T11:16:12;10.18;;;8.38;;
69956;SDS011;57283;54.816;9.482;2023-04-06T11:18:51;9.65;;;7.22;;
69956;SDS011;57283;54.816;9.482;2023-04-06T11:21:31;10.90;;;7.60;;
69956;SDS011;57283;54.816;9.482;2023-04-06T11:24:04;12.00;;;7.25;;
69956;SDS011;57283;54.816;9.482;2023-04-06T11:26:37;13.02;;;7.53;;
69956;SDS011;57283;54.816;9.482;2023-04-06T11:29:07;13.75;;;7.90;;
69956;SDS011;57283;54.816;9.482;2023-04-06T11:31:39;12.63;;;7.78;;
69956;SDS011;57283;54.816;9.482;2023-04-06T11:34:12;11.83;;;7.17;;
69956;SDS011;57283;54.816;9.482;2023-04-06T11:36:41;12.77;;;7.68;;
69956;SDS011;57283;54.816;9.482;2023-04-06T11:39:10;10.43;;;7.30;;
69956;SDS011;57283;54.816;9.482;2023-04-06T11:41:39;10.98;;;8.00;;
69956;SDS011;57283;54.816;9.482;2023-04-06T11:44:08;12.05;;;8.20;;
69956;SDS011;57283;54.816;9.482;2023-04-06T11:46:36;11.60;;;7.90;;
69956;SDS011;57283;54.816;9.482;2023-04-06T11:49:04;12.43;;;7.95;;
69956;SDS011;57283;54.816;9.482;2023-04-06T11:51:35;11.68;;;8.82;;
69956;SDS011;57283;54.816;9.482;2023-04-06T11:54:04;13.43;;;8.18;;
69956;SDS011;57283;54.816;9.482;2023-04-06T11:56:31;12.20;;;8.75;;
69956;SDS011;57283;54.816;9.482;2023-04-06T11:58:59;12.40;;;8.80;;
69956;SDS011;57283;54.816;9.482;2023-04-06T12:01:29;13.68;;;8.50;;
69956;SDS011;57283;54.816;9.482;2023-04-06T12:04:02;10.15;;;6.95;;
69956;SDS011;57283;54.816;9.482;2023-04-06T12:06:30;11.73;;;8.43;;
69956;SDS011;57283;54.816;9.482;2023-04-06T12:08:58;11.10;;;6.60;;
69956;SDS011;57283;54.816;9.482;2023-04-06T12:11:26;10.57;;;7.17;;
69956;SDS011;57283;54.816;9.482;2023-04-06T12:13:54;11.05;;;6.88;;
69956;SDS011;57283;54.816;9.482;2023-04-06T12:16:21;10.02;;;7.03;;
69956;SDS011;57283;54.816;9.482;2023-04-06T12:18:52;12.25;;;7.82;;
69956;SDS011;57283;54.816;9.482;2023-04-06T12:21:19;10.93;;;7.35;;
69956;SDS011;57283;54.816;9.482;2023-04-06T12:23:47;9.80;;;6.87;;
69956;SDS011;57283;54.816;9.482;2023-04-06T12:26:15;11.70;;;6.90;;
69956;SDS011;57283;54.816;9.482;2023-04-06T12:28:43;11.23;;;7.70;;
69956;SDS011;57283;54.816;9.482;2023-04-06T12:31:14;10.25;;;7.25;;
69956;SDS011;57283;54.816;9.482;2023-04-06T12:33:43;11.00;;;6.95;;
69956;SDS011;57283;54.816;9.482;2023-04-06T12:36:13;9.93;;;7.13;;
69956;SDS011;57283;54.816;9.482;2023-04-06T12:38:41;10.77;;;7.07;;
69956;SDS011;57283;54.816;9.482;2023-04-06T12:41:11;8.60;;;6.82;;
69956;SDS011;57283;54.816;9.482;2023-04-06T12:43:40;10.23;;;7.28;;
69956;SDS011;57283;54.816;9.482;2023-04-06T12:46:08;10.38;;;7.43;;
69956;SDS011;57283;54.816;9.482;2023-04-06T12:48:37;9.63;;;6.70;;
69956;SDS011;57283;54.816;9.482;2023-04-06T12:51:06;10.10;;;7.03;;
69956;SDS011;57283;54.816;9.482;2023-04-06T12:53:35;11.43;;;6.72;;
69956;SDS011;57283;54.816;9.482;2023-04-06T12:56:10;9.50;;;6.82;;
69956;SDS011;57283;54.816;9.482;2023-04-06T12:58:39;9.55;;;7.38;;
69956;SDS011;57283;54.816;9.482;2023-04-06T13:01:08;10.20;;;7.03;;
69956;SDS011;57283;54.816;9.482;2023-04-06T13:03:37;9.93;;;6.85;;
69956;SDS011;57283;54.816;9.482;2023-04-06T13:06:06;9.32;;;6.50;;
69956;SDS011;57283;54.816;9.482;2023-04-06T13:08:36;9.25;;;6.75;;
69956;SDS011;57283;54.816;9.482;2023-04-06T13:11:05;9.75;;;6.72;;
69956;SDS011;57283;54.816;9.482;2023-04-06T13:13:34;10.17;;;6.70;;
69956;SDS011;57283;54.816;9.482;2023-04-06T13:16:03;9.23;;;6.50;;
69956;SDS011;57283;54.816;9.482;2023-04-06T13:18:33;11.18;;;6.65;;
69956;SDS011;57283;54.816;9.482;2023-04-06T13:21:03;9.07;;;6.45;;
69956;SDS011;57283;54.816;9.482;2023-04-06T13:23:32;8.35;;;6.63;;
69956;SDS011;57283;54.816;9.482;2023-04-06T13:26:03;11.03;;;6.07;;
69956;SDS011;57283;54.816;9.482;2023-04-06T13:28:32;9.80;;;6.57;;
69956;SDS011;57283;54.816;9.482;2023-04-06T13:31:01;11.18;;;6.07;;
69956;SDS011;57283;54.816;9.482;2023-04-06T13:33:30;9.82;;;6.38;;
69956;SDS011;57283;54.816;9.482;2023-04-06T13:35:58;9.68;;;6.85;;
69956;SDS011;57283;54.816;9.482;2023-04-06T13:38:26;8.27;;;5.90;;
69956;SDS011;57283;54.816;9.482;2023-04-06T13:40:55;9.20;;;6.20;;
69956;SDS011;57283;54.816;9.482;2023-04-06T13:43:24;8.98;;;6.45;;
69956;SDS011;57283;54.816;9.482;2023-04-06T13:45:53;10.15;;;6.18;;
69956;SDS011;57283;54.816;9.482;2023-04-06T13:48:24;10.00;;;5.85;;
69956;SDS011;57283;54.816;9.482;2023-04-06T13:50:52;9.27;;;6.40;;
69956;SDS011;57283;54.816;9.482;2023-04-06T13:53:20;10.82;;;6.13;;
69956;SDS011;57283;54.816;9.482;2023-04-06T13:55:54;9.75;;;6.47;;
69956;SDS011;57283;54.816;9.482;2023-04-06T13:58:24;8.85;;;6.30;;
69956;SDS011;57283;54.816;9.482;2023-04-06T14:00:52;10.48;;;6.57;;
69956;SDS011;57283;54.816;9.482;2023-04-06T14:03:20;10.17;;;6.47;;
69956;SDS011;57283;54.816;9.482;2023-04-06T14:05:49;9.00;;;6.03;;
69956;SDS011;57283;54.816;9.482;2023-04-06T14:08:17;10.32;;;6.43;;
69956;SDS011;57283;54.816;9.482;2023-04-06T14:10:45;9.52;;;6.70;;
69956;SDS011;57283;54.816;9.482;2023-04-06T14:13:13;9.43;;;6.28;;
69956;SDS011;57283;54.816;9.482;2023-04-06T14:15:43;9.93;;;5.57;;
69956;SDS011;57283;54.816;9.482;2023-04-06T14:18:10;10.88;;;6.70;;
69956;SDS011;57283;54.816;9.482;2023-04-06T14:20:38;11.85;;;6.93;;
69956;SDS011;57283;54.816;9.482;2023-04-06T14:23:06;9.32;;;5.70;;
69956;SDS011;57283;54.816;9.482;2023-04-06T14:25:34;11.20;;;5.97;;
69956;SDS011;57283;54.816;9.482;2023-04-06T14:28:02;10.50;;;6.03;;
69956;SDS011;57283;54.816;9.482;2023-04-06T14:30:30;10.65;;;5.65;;
69956;SDS011;57283;54.816;9.482;2023-04-06T14:33:00;9.65;;;6.00;;
69956;SDS011;57283;54.816;9.482;2023-04-06T14:35:27;9.95;;;6.90;;
69956;SDS011;57283;54.816;9.482;2023-04-06T14:37:56;10.15;;;5.72;;
69956;SDS011;57283;54.816;9.482;2023-04-06T14:40:25;8.20;;;5.27;;
69956;SDS011;57283;54.816;9.482;2023-04-06T14:42:53;8.15;;;5.13;;
69956;SDS011;57283;54.816;9.482;2023-04-06T14:45:21;10.57;;;5.57;;
69956;SDS011;57283;54.816;9.482;2023-04-06T14:47:49;9.40;;;5.40;;
69956;SDS011;57283;54.816;9.482;2023-04-06T14:50:19;11.35;;;5.35;;
69956;SDS011;57283;54.816;9.482;2023-04-06T14:52:46;10.40;;;5.50;;
69956;SDS011;57283;54.816;9.482;2023-04-06T14:55:14;9.85;;;4.78;;
69956;SDS011;57283;54.816;9.482;2023-04-06T14:57:42;11.95;;;5.70;;